createdAt,value
2023-08-15T00:01:56.693Z,100.00
2023-08-15T00:04:23.645Z,100.00
2023-08-15T00:06:50.307Z,100.00
2023-08-15T00:09:17.143Z,100.00
2023-08-15T00:11:43.825Z,100.00
2023-08-15T00:14:11.016Z,100.00
2023-08-15T00:16:37.860Z,100.00
2023-08-15T00:19:04.680Z,100.00
2023-08-15T00:21:31.456Z,100.00
2023-08-15T00:23:58.180Z,100.00
2023-08-15T00:26:24.824Z,100.00
2023-08-15T00:28:51.481Z,100.00
2023-08-15T00:31:18.263Z,100.00
2023-08-15T00:33:44.931Z,100.00
2023-08-15T00:36:11.604Z,100.00
2023-08-15T00:38:39.198Z,100.00
2023-08-15T00:41:05.844Z,100.00
2023-08-15T00:43:32.508Z,100.00
2023-08-15T00:46:02.717Z,100.00
2023-08-15T00:48:31.305Z,100.00
2023-08-15T00:51:01.608Z,100.00
2023-08-15T00:53:30.865Z,100.00
2023-08-15T00:55:58.752Z,100.00
2023-08-15T00:58:26.531Z,100.00
2023-08-15T01:00:53.586Z,100.00
2023-08-15T01:03:20.429Z,100.00
2023-08-15T01:05:48.895Z,100.00
2023-08-15T01:08:16.624Z,100.00
2023-08-15T01:10:44.485Z,100.00
2023-08-15T01:13:20.493Z,100.00
2023-08-15T01:15:51.808Z,100.00
2023-08-15T01:18:28.202Z,100.00
2023-08-15T01:20:56.994Z,100.00
2023-08-15T01:23:40.998Z,100.00
2023-08-15T01:26:07.693Z,100.00
2023-08-15T01:28:34.356Z,100.00
2023-08-15T01:31:12.847Z,100.00
2023-08-15T01:34:07.388Z,100.00
2023-08-15T01:36:41.001Z,100.00
2023-08-15T01:39:08.169Z,100.00
2023-08-15T01:41:38.973Z,100.00
2023-08-15T01:44:08.632Z,100.00
2023-08-15T01:46:35.294Z,100.00
2023-08-15T01:49:02.204Z,100.00
2023-08-15T01:51:28.891Z,100.00
2023-08-15T01:53:55.616Z,100.00
2023-08-15T01:56:22.277Z,100.00
2023-08-15T01:58:49.040Z,100.00
2023-08-15T02:01:15.723Z,100.00
2023-08-15T02:03:42.516Z,100.00
2023-08-15T02:06:09.471Z,100.00
2023-08-15T02:08:36.181Z,100.00
2023-08-15T02:11:02.945Z,100.00
2023-08-15T02:13:31.992Z,100.00
2023-08-15T02:15:58.744Z,100.00
2023-08-15T02:18:30.697Z,100.00
2023-08-15T02:20:57.406Z,100.00
2023-08-15T02:23:24.106Z,100.00
2023-08-15T02:25:51.060Z,100.00
2023-08-15T02:28:17.912Z,100.00
2023-08-15T02:30:44.651Z,100.00
2023-08-15T02:33:11.324Z,100.00
2023-08-15T02:35:43.140Z,100.00
2023-08-15T02:38:09.968Z,100.00
2023-08-15T02:40:36.738Z,100.00
2023-08-15T02:43:03.474Z,100.00
2023-08-15T02:45:30.173Z,100.00
2023-08-15T02:47:56.967Z,100.00
2023-08-15T02:50:23.696Z,100.00
2023-08-15T02:52:50.463Z,100.00
2023-08-15T02:55:17.304Z,100.00
2023-08-15T02:57:43.978Z,100.00
2023-08-15T03:00:11.090Z,100.00
2023-08-15T03:02:37.973Z,100.00
2023-08-15T03:05:06.092Z,100.00
2023-08-15T03:07:32.767Z,100.00
2023-08-15T03:09:59.394Z,100.00
2023-08-15T03:12:26.111Z,100.00
2023-08-15T03:14:52.910Z,100.00
2023-08-15T03:17:20.742Z,100.00
2023-08-15T03:19:47.657Z,100.00
2023-08-15T03:22:14.360Z,100.00
2023-08-15T03:24:41.061Z,100.00
2023-08-15T03:27:07.702Z,100.00
2023-08-15T03:29:36.004Z,100.00
2023-08-15T03:32:02.768Z,100.00
2023-08-15T03:34:29.525Z,100.00
2023-08-15T03:36:57.275Z,100.00
2023-08-15T03:39:23.951Z,100.00
2023-08-15T03:41:50.595Z,100.00
2023-08-15T03:44:17.298Z,100.00
2023-08-15T03:46:44.102Z,100.00
2023-08-15T03:49:10.817Z,100.00
2023-08-15T03:51:46.271Z,100.00
2023-08-15T03:54:14.127Z,100.00
2023-08-15T03:56:40.813Z,100.00
2023-08-15T03:59:07.536Z,100.00
2023-08-15T04:01:34.393Z,100.00
2023-08-15T04:04:01.186Z,100.00
2023-08-15T04:06:27.979Z,100.00
2023-08-15T04:08:54.644Z,100.00
2023-08-15T04:11:21.298Z,100.00
2023-08-15T04:13:48.031Z,100.00
2023-08-15T04:16:15.993Z,100.00
2023-08-15T04:18:42.807Z,100.00
2023-08-15T04:21:11.480Z,100.00
2023-08-15T04:23:38.333Z,100.00
2023-08-15T04:26:05.021Z,100.00
2023-08-15T04:28:31.700Z,100.00
2023-08-15T04:30:58.440Z,100.00
2023-08-15T04:33:25.090Z,100.00
2023-08-15T04:35:51.716Z,100.00
2023-08-15T04:38:18.492Z,100.00
2023-08-15T04:40:45.254Z,100.00
2023-08-15T04:43:12.356Z,100.00
2023-08-15T04:45:44.335Z,100.00
2023-08-15T04:48:12.680Z,100.00
2023-08-15T04:50:39.618Z,100.00
2023-08-15T04:53:06.934Z,100.00
2023-08-15T04:55:33.915Z,100.00
2023-08-15T04:58:00.598Z,100.00
2023-08-15T05:00:27.279Z,100.00
2023-08-15T05:02:53.964Z,100.00
2023-08-15T05:05:20.929Z,100.00
2023-08-15T05:07:47.605Z,100.00
2023-08-15T05:10:14.280Z,100.00
2023-08-15T05:12:40.947Z,100.00
2023-08-15T05:15:09.436Z,100.00
2023-08-15T05:17:36.946Z,100.00
2023-08-15T05:20:05.644Z,100.00
2023-08-15T05:22:33.248Z,100.00
2023-08-15T05:24:59.976Z,100.00
2023-08-15T05:27:26.694Z,100.00
2023-08-15T05:29:53.476Z,100.00
2023-08-15T05:32:20.201Z,100.00
2023-08-15T05:34:46.855Z,100.00
2023-08-15T05:37:13.529Z,100.00
2023-08-15T05:39:40.197Z,100.00
2023-08-15T05:42:07.050Z,100.00
2023-08-15T05:44:33.810Z,100.00
2023-08-15T05:47:00.515Z,100.00
2023-08-15T05:49:27.265Z,100.00
2023-08-15T05:51:55.237Z,100.00
2023-08-15T05:54:22.625Z,100.00
2023-08-15T05:56:49.529Z,100.00
2023-08-15T05:59:16.220Z,100.00
2023-08-15T06:01:42.943Z,100.00
2023-08-15T06:04:09.765Z,100.00
2023-08-15T06:06:36.481Z,100.00
2023-08-15T06:09:03.644Z,100.00
2023-08-15T06:11:30.863Z,100.00
2023-08-15T06:13:57.535Z,100.00
2023-08-15T06:16:24.215Z,100.00
2023-08-15T06:18:50.880Z,100.00
2023-08-15T06:21:17.596Z,100.00
2023-08-15T06:23:44.232Z,100.00
2023-08-15T06:26:10.919Z,100.00
2023-08-15T06:28:37.573Z,100.00
2023-08-15T06:31:04.257Z,100.00
2023-08-15T06:33:31.066Z,100.00
2023-08-15T06:35:57.688Z,100.00
2023-08-15T06:38:24.359Z,100.00
2023-08-15T06:40:51.030Z,100.00
2023-08-15T06:43:17.726Z,100.00
2023-08-15T06:45:44.390Z,100.00
2023-08-15T06:48:11.032Z,100.00
2023-08-15T06:50:37.722Z,100.00
2023-08-15T06:53:04.542Z,100.00
2023-08-15T06:55:31.219Z,100.00
2023-08-15T06:57:58.087Z,100.00
2023-08-15T07:00:24.800Z,100.00
2023-08-15T07:02:51.672Z,100.00
2023-08-15T07:05:18.455Z,100.00
2023-08-15T07:07:45.109Z,100.00
2023-08-15T07:10:12.020Z,100.00
2023-08-15T07:12:38.768Z,100.00
2023-08-15T07:15:06.140Z,100.00
2023-08-15T07:17:32.855Z,100.00
2023-08-15T07:19:59.612Z,100.00
2023-08-15T07:22:26.306Z,100.00
2023-08-15T07:24:52.960Z,100.00
2023-08-15T07:27:19.736Z,100.00
2023-08-15T07:29:46.383Z,100.00
2023-08-15T07:32:13.757Z,100.00
2023-08-15T07:34:41.980Z,100.00
2023-08-15T07:37:08.972Z,100.00
2023-08-15T07:39:36.105Z,100.00
2023-08-15T07:42:02.975Z,100.00
2023-08-15T07:44:29.613Z,100.00
2023-08-15T07:46:56.277Z,100.00
2023-08-15T07:49:22.916Z,100.00
2023-08-15T07:51:49.623Z,98.76
2023-08-15T07:54:16.417Z,98.85
2023-08-15T07:56:43.208Z,97.86
2023-08-15T07:59:09.965Z,96.34
2023-08-15T08:01:36.628Z,96.64
2023-08-15T08:04:03.409Z,96.45
2023-08-15T08:09:00.211Z,94.24
2023-08-15T08:11:27.062Z,93.35
2023-08-15T08:13:53.728Z,95.53
2023-08-15T08:16:20.770Z,91.75
2023-08-15T08:18:47.458Z,90.18
2023-08-15T08:21:14.216Z,92.93
2023-08-15T08:23:40.916Z,89.09
2023-08-15T08:26:08.487Z,88.87
2023-08-15T08:28:35.789Z,89.45
2023-08-15T08:31:04.546Z,87.81
2023-08-15T08:33:31.257Z,83.89
2023-08-15T08:35:57.900Z,86.16
2023-08-15T08:38:27.939Z,87.00
2023-08-15T08:40:56.808Z,81.69
2023-08-15T08:43:23.949Z,83.71
2023-08-15T08:45:52.714Z,84.58
2023-08-15T08:48:21.357Z,84.29
2023-08-15T08:50:49.274Z,83.36
2023-08-15T08:53:15.956Z,85.10
2023-08-15T08:55:47.564Z,84.04
2023-08-15T08:58:14.526Z,87.05
2023-08-15T09:00:41.877Z,86.97
2023-08-15T09:03:09.895Z,81.89
2023-08-15T09:05:37.122Z,80.24
2023-08-15T09:08:03.933Z,78.56
2023-08-15T09:10:30.583Z,77.54
2023-08-15T09:13:01.339Z,77.44
2023-08-15T09:15:28.372Z,77.80
2023-08-15T09:18:01.382Z,80.14
2023-08-15T09:20:28.921Z,83.12
2023-08-15T09:22:58.322Z,84.13
2023-08-15T09:25:27.453Z,83.40
2023-08-15T09:27:55.039Z,80.72
2023-08-15T09:30:22.810Z,81.95
2023-08-15T09:32:50.174Z,81.03
2023-08-15T09:35:19.541Z,80.20
2023-08-15T09:37:51.036Z,82.31
2023-08-15T09:40:19.060Z,82.22
2023-08-15T09:42:46.922Z,83.08
2023-08-15T09:45:15.075Z,80.45
2023-08-15T09:47:43.727Z,79.86
2023-08-15T09:50:13.007Z,79.35
2023-08-15T09:52:45.412Z,79.81
2023-08-15T09:55:14.570Z,84.75
2023-08-15T09:57:43.368Z,83.95
2023-08-15T10:00:18.751Z,82.07
2023-08-15T10:02:53.642Z,82.83
2023-08-15T10:05:23.255Z,82.21
2023-08-15T10:07:51.286Z,82.52
2023-08-15T10:10:19.307Z,85.81
2023-08-15T10:12:48.278Z,89.57
2023-08-15T10:15:15.775Z,83.93
2023-08-15T10:17:42.989Z,82.23
2023-08-15T10:20:19.097Z,84.77
2023-08-15T10:22:45.895Z,88.74
2023-08-15T10:25:25.034Z,90.60
2023-08-15T10:27:54.138Z,89.53
2023-08-15T10:30:52.371Z,92.02
2023-08-15T10:33:21.845Z,89.38
2023-08-15T10:35:52.021Z,91.71
2023-08-15T10:38:21.628Z,92.25
2023-08-15T10:40:49.435Z,89.37
2023-08-15T10:43:16.939Z,94.01
2023-08-15T10:45:53.852Z,88.98
2023-08-15T10:49:02.904Z,84.27
2023-08-15T10:51:36.508Z,75.60
2023-08-15T10:54:08.385Z,72.14
2023-08-15T10:56:37.297Z,71.01
2023-08-15T10:59:08.786Z,73.73
2023-08-15T11:01:38.071Z,70.17
2023-08-15T11:04:09.407Z,68.85
2023-08-15T11:06:50.215Z,69.61
2023-08-15T11:09:17.710Z,70.55
2023-08-15T11:11:48.001Z,68.50
2023-08-15T11:14:17.487Z,67.26
2023-08-15T11:16:45.601Z,65.06
2023-08-15T11:19:14.870Z,63.58
2023-08-15T11:21:41.517Z,62.26
2023-08-15T11:24:08.500Z,58.78
2023-08-15T11:26:37.161Z,60.06
2023-08-15T11:29:04.286Z,58.04
2023-08-15T11:31:31.833Z,60.45
2023-08-15T11:33:59.711Z,58.74
2023-08-15T11:36:26.433Z,58.08
2023-08-15T11:38:53.125Z,58.62
2023-08-15T11:41:20.378Z,59.94
2023-08-15T11:43:48.328Z,58.81
2023-08-15T11:46:15.137Z,58.33
2023-08-15T11:48:47.977Z,60.30
2023-08-15T11:51:24.259Z,62.14
2023-08-15T11:53:52.511Z,53.18
2023-08-15T11:56:19.441Z,51.36
2023-08-15T11:58:47.411Z,57.29
2023-08-15T12:01:14.462Z,54.58
2023-08-15T12:03:41.664Z,54.53
2023-08-15T12:06:13.740Z,56.32
2023-08-15T12:08:43.154Z,57.25
2023-08-15T12:11:11.665Z,55.56
2023-08-15T12:13:42.428Z,54.65
2023-08-15T12:16:11.001Z,53.83
2023-08-15T12:18:38.079Z,54.02
2023-08-15T12:21:14.459Z,55.70
2023-08-15T12:23:42.701Z,53.12
2023-08-15T12:26:09.385Z,54.20
2023-08-15T12:28:36.121Z,55.28
2023-08-15T12:31:02.928Z,51.94
2023-08-15T12:33:41.962Z,52.81
2023-08-15T12:36:13.659Z,55.89
2023-08-15T12:38:40.438Z,53.68
2023-08-15T12:41:10.105Z,54.13
2023-08-15T12:43:37.537Z,55.61
2023-08-15T12:46:04.444Z,53.21
2023-08-15T12:48:31.171Z,55.40
2023-08-15T12:50:57.870Z,50.24
2023-08-15T12:53:24.689Z,53.34
2023-08-15T12:55:51.569Z,51.76
2023-08-15T12:58:18.293Z,52.71
2023-08-15T13:00:45.109Z,51.28
2023-08-15T13:03:12.433Z,51.40
2023-08-15T13:05:39.146Z,50.62
2023-08-15T13:08:06.517Z,51.35
2023-08-15T13:10:33.246Z,51.90
2023-08-15T13:12:59.942Z,52.88
2023-08-15T13:15:27.102Z,53.82
2023-08-15T13:17:53.801Z,54.91
2023-08-15T13:20:20.440Z,52.76
2023-08-15T13:22:47.110Z,52.83
2023-08-15T13:25:13.752Z,52.68
2023-08-15T13:27:40.540Z,50.27
2023-08-15T13:30:08.746Z,51.11
2023-08-15T13:32:35.530Z,52.02
2023-08-15T13:35:02.437Z,51.07
2023-08-15T13:37:29.099Z,51.92
2023-08-15T13:39:58.509Z,51.17
2023-08-15T13:42:35.809Z,50.79
2023-08-15T13:45:07.570Z,51.40
2023-08-15T13:47:38.669Z,50.86
2023-08-15T13:50:06.594Z,50.73
2023-08-15T13:52:33.566Z,48.46
2023-08-15T13:55:00.220Z,49.89
2023-08-15T13:57:27.037Z,50.14
2023-08-15T13:59:55.717Z,52.39
2023-08-15T14:02:22.502Z,50.38
2023-08-15T14:04:49.571Z,50.70
2023-08-15T14:07:16.249Z,52.79
2023-08-15T14:09:42.928Z,50.25
2023-08-15T14:12:09.736Z,50.98
2023-08-15T14:14:38.207Z,50.17
2023-08-15T14:17:07.347Z,51.16
2023-08-15T14:19:34.091Z,49.93
2023-08-15T14:22:00.787Z,51.87
2023-08-15T14:24:27.455Z,50.74
2023-08-15T14:26:54.176Z,51.30
2023-08-15T14:29:21.229Z,49.85
2023-08-15T14:31:47.884Z,49.93
2023-08-15T14:34:15.584Z,49.80
2023-08-15T14:36:42.249Z,49.84
2023-08-15T14:39:08.941Z,50.67
2023-08-15T14:41:35.605Z,51.92
2023-08-15T14:44:02.274Z,52.62
2023-08-15T14:46:28.957Z,51.63
2023-08-15T14:48:55.636Z,51.89
2023-08-15T14:51:22.408Z,50.19
2023-08-15T14:53:49.059Z,50.14
2023-08-15T14:56:17.390Z,48.79
2023-08-15T14:58:46.569Z,48.20
2023-08-15T15:01:13.494Z,47.73
2023-08-15T15:03:40.286Z,51.03
2023-08-15T15:06:07.023Z,51.96
2023-08-15T15:08:33.663Z,50.75
2023-08-15T15:11:02.875Z,50.92
2023-08-15T15:13:29.543Z,50.64
2023-08-15T15:15:56.458Z,51.48
2023-08-15T15:18:23.765Z,51.42
2023-08-15T15:20:50.603Z,51.37
2023-08-15T15:23:17.674Z,53.13
2023-08-15T15:25:50.380Z,55.09
2023-08-15T15:28:17.061Z,54.70
2023-08-15T15:30:43.704Z,55.95
2023-08-15T15:33:11.917Z,58.77
2023-08-15T15:35:38.559Z,55.41
2023-08-15T15:38:05.447Z,55.58
2023-08-15T15:40:32.477Z,56.86
2023-08-15T15:42:59.123Z,57.76
2023-08-15T15:45:25.762Z,59.36
2023-08-15T15:47:52.592Z,59.55
2023-08-15T15:50:21.227Z,62.40
2023-08-15T15:52:49.009Z,63.92
2023-08-15T15:55:20.977Z,58.37
2023-08-15T15:57:47.815Z,59.83
2023-08-15T16:00:17.184Z,59.91
2023-08-15T16:02:44.269Z,61.53
2023-08-15T16:05:14.379Z,62.40
2023-08-15T16:07:41.138Z,62.07
2023-08-15T16:10:08.446Z,61.37
2023-08-15T16:12:35.117Z,60.51
2023-08-15T16:15:02.176Z,62.24
2023-08-15T16:17:30.317Z,60.54
2023-08-15T16:19:57.063Z,58.66
2023-08-15T16:22:24.039Z,61.07
2023-08-15T16:24:51.356Z,59.98
2023-08-15T16:27:17.995Z,61.28
2023-08-15T16:29:44.686Z,64.48
2023-08-15T16:32:12.843Z,62.91
2023-08-15T16:34:41.627Z,63.35
2023-08-15T16:37:08.342Z,67.90
2023-08-15T16:39:35.168Z,67.70
2023-08-15T16:42:01.894Z,69.20
2023-08-15T16:44:28.610Z,71.19
2023-08-15T16:46:55.283Z,72.27
2023-08-15T16:49:22.096Z,73.15
2023-08-15T16:51:48.750Z,74.47
2023-08-15T16:54:15.539Z,76.48
2023-08-15T16:56:42.234Z,78.11
2023-08-15T16:59:08.897Z,79.12
2023-08-15T17:01:35.623Z,80.39
2023-08-15T17:04:02.359Z,81.54
2023-08-15T17:06:29.177Z,81.15
2023-08-15T17:08:55.884Z,83.86
2023-08-15T17:11:22.511Z,85.59
2023-08-15T17:13:49.263Z,84.61
2023-08-15T17:16:15.930Z,86.38
2023-08-15T17:18:42.625Z,87.58
2023-08-15T17:21:09.309Z,88.33
2023-08-15T17:23:35.951Z,88.65
2023-08-15T17:26:03.327Z,87.81
2023-08-15T17:28:30.479Z,87.24
2023-08-15T17:30:58.036Z,87.00
2023-08-15T17:33:27.221Z,86.32
2023-08-15T17:35:53.868Z,86.03
2023-08-15T17:38:20.973Z,86.04
2023-08-15T17:40:47.800Z,85.37
2023-08-15T17:43:14.884Z,86.36
2023-08-15T17:45:42.142Z,86.78
2023-08-15T17:48:09.985Z,87.96
2023-08-15T17:50:36.872Z,88.00
2023-08-15T17:53:03.793Z,87.61
2023-08-15T17:55:30.626Z,88.06
2023-08-15T17:57:57.342Z,88.28
2023-08-15T18:00:24.171Z,90.16
2023-08-15T18:02:51.015Z,90.66
2023-08-15T18:05:17.887Z,90.58
2023-08-15T18:07:44.641Z,91.79
2023-08-15T18:10:11.565Z,92.51
2023-08-15T18:12:38.405Z,97.29
2023-08-15T18:15:05.588Z,98.32
2023-08-15T18:17:32.393Z,100.00
2023-08-15T18:20:01.506Z,100.00
2023-08-15T18:22:28.396Z,100.00
2023-08-15T18:24:55.117Z,100.00
2023-08-15T18:27:21.791Z,100.00
2023-08-15T18:29:48.572Z,100.00
2023-08-15T18:32:15.203Z,100.00
2023-08-15T18:34:41.899Z,100.00
2023-08-15T18:37:08.556Z,100.00
2023-08-15T18:39:35.318Z,100.00
2023-08-15T18:42:02.148Z,100.00
2023-08-15T18:44:28.857Z,100.00
2023-08-15T18:46:55.600Z,100.00
2023-08-15T18:49:22.296Z,100.00
2023-08-15T18:51:48.946Z,100.00
2023-08-15T18:54:15.627Z,100.00
2023-08-15T18:56:42.305Z,100.00
2023-08-15T18:59:10.019Z,100.00
2023-08-15T19:01:36.816Z,100.00
2023-08-15T19:04:04.464Z,100.00
2023-08-15T19:06:31.347Z,100.00
2023-08-15T19:08:58.129Z,100.00
2023-08-15T19:11:24.942Z,100.00
2023-08-15T19:13:52.739Z,100.00
2023-08-15T19:16:19.482Z,100.00
2023-08-15T19:18:46.224Z,100.00
2023-08-15T19:21:14.231Z,100.00
2023-08-15T19:23:40.905Z,100.00
2023-08-15T19:26:07.598Z,100.00
2023-08-15T19:28:34.336Z,100.00
2023-08-15T19:31:01.140Z,100.00
2023-08-15T19:33:27.878Z,100.00
2023-08-15T19:35:54.621Z,100.00
2023-08-15T19:38:21.342Z,100.00
2023-08-15T19:40:48.196Z,100.00
2023-08-15T19:43:15.040Z,100.00
2023-08-15T19:45:41.897Z,100.00
2023-08-15T19:48:08.822Z,100.00
2023-08-15T19:50:35.658Z,100.00
2023-08-15T19:53:02.423Z,95.79
2023-08-15T19:55:31.604Z,97.04
2023-08-15T19:57:59.810Z,95.96
2023-08-15T20:00:26.611Z,96.94
2023-08-15T20:02:53.324Z,95.92
2023-08-15T20:05:20.117Z,96.82
2023-08-15T20:07:46.940Z,98.22
2023-08-15T20:10:15.284Z,97.82
2023-08-15T20:12:41.970Z,96.95
2023-08-15T20:15:09.294Z,96.48
2023-08-15T20:17:36.079Z,98.69
2023-08-15T20:20:02.876Z,99.18
2023-08-15T20:22:29.599Z,98.72
2023-08-15T20:24:57.811Z,98.18
2023-08-15T20:27:24.668Z,99.19
2023-08-15T20:29:54.405Z,100.00
2023-08-15T20:32:21.596Z,100.00
2023-08-15T20:34:48.537Z,100.00
2023-08-15T20:37:15.536Z,100.00
2023-08-15T20:39:42.406Z,100.00
2023-08-15T20:42:09.985Z,100.00
2023-08-15T20:44:36.883Z,100.00
2023-08-15T20:47:04.090Z,100.00
2023-08-15T20:49:30.900Z,100.00
2023-08-15T20:51:58.978Z,100.00
2023-08-15T20:54:25.929Z,100.00
2023-08-15T20:56:52.600Z,100.00
2023-08-15T20:59:19.659Z,100.00
2023-08-15T21:01:46.383Z,100.00
2023-08-15T21:04:13.279Z,100.00
2023-08-15T21:06:40.015Z,100.00
2023-08-15T21:09:06.793Z,100.00
2023-08-15T21:11:33.486Z,100.00
2023-08-15T21:14:00.221Z,100.00
2023-08-15T21:16:27.104Z,100.00
2023-08-15T21:18:53.784Z,100.00
2023-08-15T21:21:20.626Z,100.00
2023-08-15T21:23:47.473Z,100.00
2023-08-15T21:26:14.192Z,100.00
2023-08-15T21:28:40.896Z,100.00
2023-08-15T21:31:07.616Z,100.00
2023-08-15T21:33:34.360Z,100.00
2023-08-15T21:36:01.468Z,100.00
2023-08-15T21:38:28.159Z,100.00
2023-08-15T21:40:54.820Z,100.00
2023-08-15T21:43:21.699Z,100.00
2023-08-15T21:45:48.413Z,100.00
2023-08-15T21:48:15.307Z,100.00
2023-08-15T21:50:42.110Z,100.00
2023-08-15T21:53:08.904Z,100.00
2023-08-15T21:55:35.603Z,100.00
2023-08-15T21:58:02.311Z,100.00
2023-08-15T22:00:29.365Z,100.00
2023-08-15T22:02:58.980Z,100.00
2023-08-15T22:05:26.709Z,100.00
2023-08-15T22:07:53.846Z,100.00
2023-08-15T22:10:23.828Z,100.00
2023-08-15T22:12:51.390Z,100.00
2023-08-15T22:15:19.206Z,100.00
2023-08-15T22:17:52.175Z,100.00
2023-08-15T22:20:21.814Z,100.00
2023-08-15T22:22:48.795Z,100.00
2023-08-15T22:25:17.505Z,100.00
2023-08-15T22:27:46.181Z,100.00
2023-08-15T22:30:13.737Z,100.00
2023-08-15T22:32:40.802Z,100.00
2023-08-15T22:35:08.265Z,100.00
2023-08-15T22:37:35.165Z,100.00
2023-08-15T22:40:04.807Z,100.00
2023-08-15T22:42:32.685Z,100.00
2023-08-15T22:44:59.461Z,100.00
2023-08-15T22:47:26.158Z,100.00
2023-08-15T22:49:52.980Z,100.00
2023-08-15T22:52:19.692Z,100.00
2023-08-15T22:54:46.511Z,100.00
2023-08-15T22:57:13.281Z,100.00
2023-08-15T22:59:39.939Z,100.00
2023-08-15T23:02:06.676Z,100.00
2023-08-15T23:04:33.467Z,100.00
2023-08-15T23:07:00.376Z,100.00
2023-08-15T23:09:27.122Z,100.00
2023-08-15T23:11:53.928Z,100.00
2023-08-15T23:14:20.707Z,100.00
2023-08-15T23:16:47.401Z,100.00
2023-08-15T23:19:14.166Z,100.00
2023-08-15T23:21:42.752Z,100.00
2023-08-15T23:24:09.905Z,100.00
2023-08-15T23:26:37.242Z,100.00
2023-08-15T23:29:04.658Z,100.00
2023-08-15T23:31:34.735Z,100.00
2023-08-15T23:34:03.658Z,100.00
2023-08-15T23:36:30.406Z,100.00
2023-08-15T23:38:58.412Z,100.00
2023-08-15T23:41:26.840Z,100.00
2023-08-15T23:43:56.670Z,100.00
2023-08-15T23:46:26.976Z,100.00
2023-08-15T23:48:53.715Z,100.00
2023-08-15T23:51:20.480Z,100.00
2023-08-15T23:53:48.686Z,100.00
2023-08-15T23:56:18.262Z,100.00
2023-08-15T23:58:46.257Z,100.00
